Strona główna
METAR-TAF:

METAR-TAF

Lotnisko :

Port lotniczy Cam Ranh

Cam Ranh, Wietnam

Szerokość geograficzna: 11-59-53N, Długość geograficzna: 109-13-10E, wysokość: 12 m

Aktualna obserwacja pogody

Raport powstał 36 minut temu, godzina 12:30 UTC
Wiatr 3 kt od południowy zachód
Temperatura 25°C
Wilgotność 69%
Ciśnienie 1008 hPa
Widzialność 10 km lub więcej
Mało chmury na wysokości 1500 ft

METAR: VVCR 261230Z 22003KT 9999 FEW015 25/19 Q1008 NOSIG

czas: 20:06 (13:06 UTC)

Prognoza

Raport powstał 2 godziny i 6 minut temu, godzina 11:00 UTC
Prognoza ważna od 26 godzina 12 UTC do 27 godzina 12 UTC
Wiatr 7 kt od południowo-południowy wschód
Widzialność 10 km lub więcej
Mało chmury na wysokości 1500 ft

TAF: VVCR 261100Z 2612/2712 15007KT 9999 FEW015

Obserwacja i prognoza pogody dla ponad 4000 lotnisk (raport METAR i TAF).

Dostępne stacje oznaczono żółtymi i czerwonymi punktami na mapie.

Najedź kursorem aby zobaczyć nazwę stacji.

Kliknij aby zobaczyć obserwacje i prognozy pogody.

Aby zmienić mapę: kliknij na zielony przycisk z czarnym krzyżykiem, aby powiększyć; na zielony przycisk z myślnikiem, aby pomniejszyć; na zielone strzałki, aby przejść do map sąsiednich.


METAR-TAF: